createdAt,value
2019-03-08T00:00:02.133Z,74.18
2019-03-08T00:02:33.465Z,73.67
2019-03-08T00:05:05.314Z,72.73
2019-03-08T00:07:36.950Z,71.38
2019-03-08T00:10:09.076Z,70.98
2019-03-08T00:12:40.337Z,70.82
2019-03-08T00:15:12.015Z,70.28
2019-03-08T00:17:43.320Z,70.02
2019-03-08T00:20:14.988Z,69.62
2019-03-08T00:22:46.533Z,69.36
2019-03-08T00:25:17.884Z,69.01
2019-03-08T00:27:49.665Z,69.23
2019-03-08T00:30:21.680Z,69.13
2019-03-08T00:32:53.006Z,69.02
2019-03-08T00:35:24.322Z,69.28
2019-03-08T00:37:55.606Z,69.51
2019-03-08T00:40:26.881Z,70.26
2019-03-08T00:42:58.144Z,70.54
2019-03-08T00:45:29.381Z,71.44
2019-03-08T00:48:00.623Z,73.26
2019-03-08T00:50:31.851Z,73.56
2019-03-08T00:53:02.998Z,74.75
2019-03-08T00:55:34.155Z,75.79
2019-03-08T00:58:05.535Z,76.31
2019-03-08T01:00:36.819Z,77.57
2019-03-08T01:03:08.121Z,77.38
2019-03-08T01:05:39.335Z,78.35
2019-03-08T01:08:10.566Z,78.89
2019-03-08T01:13:43.827Z,80.24
2019-03-08T01:16:15.124Z,80.83
2019-03-08T01:18:46.362Z,81.35
2019-03-08T01:21:17.602Z,81.94
2019-03-08T01:23:48.878Z,81.91
2019-03-08T01:26:20.193Z,81.90
2019-03-08T01:28:51.557Z,82.23
2019-03-08T01:31:22.839Z,82.16
2019-03-08T01:33:54.102Z,82.09
2019-03-08T01:36:27.890Z,82.50
2019-03-08T01:39:00.365Z,82.47
2019-03-08T01:41:31.615Z,82.82
2019-03-08T01:44:02.858Z,82.83
2019-03-08T01:46:34.068Z,83.12
2019-03-08T01:49:05.315Z,83.52
2019-03-08T01:51:36.750Z,83.60
2019-03-08T01:54:08.006Z,84.02
2019-03-08T01:56:39.205Z,84.28
2019-03-08T01:59:10.491Z,83.73
2019-03-08T02:01:41.807Z,84.47
2019-03-08T02:04:13.158Z,82.93
2019-03-08T02:06:44.362Z,81.62
2019-03-08T02:09:15.918Z,82.37
2019-03-08T02:11:47.143Z,82.83
2019-03-08T02:14:18.391Z,83.13
2019-03-08T02:16:49.509Z,82.72
2019-03-08T02:19:20.746Z,82.56
2019-03-08T02:21:52.029Z,82.33
2019-03-08T02:24:23.308Z,82.84
2019-03-08T02:26:54.645Z,83.58
2019-03-08T02:29:25.857Z,83.86
2019-03-08T02:31:57.126Z,83.95
2019-03-08T02:34:28.388Z,83.98
2019-03-08T02:36:59.800Z,83.77
2019-03-08T02:39:51.318Z,83.77
2019-03-08T02:42:41.566Z,83.79
2019-03-08T02:45:12.873Z,83.37
2019-03-08T02:47:44.205Z,83.66
2019-03-08T02:50:15.535Z,83.29
2019-03-08T02:52:46.746Z,83.40
2019-03-08T02:55:18.184Z,83.24
2019-03-08T02:57:49.659Z,83.63
2019-03-08T03:00:21.927Z,83.29
2019-03-08T03:02:53.173Z,83.04
2019-03-08T03:05:24.431Z,83.06
2019-03-08T03:07:55.677Z,83.26
2019-03-08T03:10:27.239Z,82.86
2019-03-08T03:12:58.529Z,82.70
2019-03-08T03:15:30.004Z,82.71
2019-03-08T03:18:01.234Z,81.99
2019-03-08T03:20:32.731Z,81.97
2019-03-08T03:23:03.942Z,81.21
2019-03-08T03:25:35.430Z,80.91
2019-03-08T03:28:06.553Z,80.56
2019-03-08T03:30:37.974Z,80.32
2019-03-08T03:33:09.178Z,79.93
2019-03-08T03:35:40.509Z,80.56
2019-03-08T03:38:11.833Z,80.60
2019-03-08T03:40:43.010Z,80.79
2019-03-08T03:43:14.259Z,80.80
2019-03-08T03:45:45.656Z,80.63
2019-03-08T03:48:16.999Z,80.92
2019-03-08T03:50:48.214Z,81.14
2019-03-08T03:53:19.713Z,81.20
2019-03-08T03:55:50.961Z,81.08
2019-03-08T03:58:22.433Z,80.40
2019-03-08T04:00:53.834Z,80.37
2019-03-08T04:03:25.167Z,80.63
2019-03-08T04:05:56.390Z,80.57
2019-03-08T04:08:27.665Z,80.37
2019-03-08T04:10:59.108Z,80.48
2019-03-08T04:13:30.377Z,80.77
2019-03-08T04:16:01.668Z,80.70
2019-03-08T04:18:33.091Z,80.94
2019-03-08T04:21:04.332Z,80.39
2019-03-08T04:23:35.635Z,80.46
2019-03-08T04:26:06.948Z,80.55
2019-03-08T04:28:38.475Z,80.56
2019-03-08T04:31:09.839Z,80.55
2019-03-08T04:33:41.191Z,80.44
2019-03-08T04:36:12.507Z,80.40
2019-03-08T04:38:43.776Z,80.31
2019-03-08T04:41:15.015Z,80.35
2019-03-08T04:43:46.411Z,79.73
2019-03-08T04:46:17.638Z,79.57
2019-03-08T04:48:48.787Z,79.57
2019-03-08T04:51:20.146Z,79.70
2019-03-08T04:53:51.320Z,79.54
2019-03-08T04:56:22.570Z,79.54
2019-03-08T04:58:53.777Z,79.68
2019-03-08T05:01:25.124Z,79.48
2019-03-08T05:03:56.374Z,79.43
2019-03-08T05:06:27.933Z,79.52
2019-03-08T05:08:59.158Z,79.54
2019-03-08T05:11:30.574Z,79.45
2019-03-08T05:14:01.818Z,79.46
2019-03-08T05:16:33.008Z,79.54
2019-03-08T05:19:04.202Z,79.79
2019-03-08T05:21:35.454Z,79.29
2019-03-08T05:24:07.058Z,79.49
2019-03-08T05:26:38.315Z,79.69
2019-03-08T05:29:09.547Z,79.81
2019-03-08T05:31:40.918Z,79.32
2019-03-08T05:34:12.374Z,78.99
2019-03-08T05:36:43.985Z,79.26
2019-03-08T05:39:34.118Z,78.99
2019-03-08T05:42:24.398Z,78.78
2019-03-08T05:44:55.652Z,78.90
2019-03-08T05:47:26.961Z,79.00
2019-03-08T05:49:58.388Z,78.94
2019-03-08T05:52:29.680Z,79.30
2019-03-08T05:55:01.257Z,79.00
2019-03-08T05:57:32.675Z,79.01
2019-03-08T06:00:04.163Z,79.35
2019-03-08T06:02:35.525Z,79.16
2019-03-08T06:05:07.886Z,79.47
2019-03-08T06:07:39.312Z,78.82
2019-03-08T06:10:34.448Z,78.33
2019-03-08T06:13:06.525Z,79.74
2019-03-08T06:15:37.797Z,80.32
2019-03-08T06:18:09.317Z,81.06
2019-03-08T06:20:40.632Z,81.50
2019-03-08T06:23:12.032Z,82.20
2019-03-08T06:25:43.276Z,81.41
2019-03-08T06:28:14.573Z,80.74
2019-03-08T06:30:45.877Z,80.57
2019-03-08T06:33:17.159Z,80.21
2019-03-08T06:35:48.634Z,79.99
2019-03-08T06:38:19.945Z,79.29
2019-03-08T06:40:51.222Z,79.48
2019-03-08T06:43:22.721Z,79.82
2019-03-08T06:45:54.091Z,79.50
2019-03-08T06:48:25.394Z,79.06
2019-03-08T06:50:56.623Z,78.46
2019-03-08T06:53:28.012Z,78.56
2019-03-08T06:55:59.318Z,77.90
2019-03-08T06:58:39.588Z,78.09
2019-03-08T07:01:13.428Z,77.83
2019-03-08T07:03:44.909Z,77.68
2019-03-08T07:06:16.189Z,77.72
2019-03-08T07:09:08.452Z,77.53
2019-03-08T07:11:58.695Z,76.67
2019-03-08T07:14:30.020Z,76.74
2019-03-08T07:17:01.376Z,76.46
2019-03-08T07:19:40.528Z,75.56
2019-03-08T07:22:10.948Z,75.46
2019-03-08T07:24:54.127Z,75.67
2019-03-08T07:27:42.988Z,75.30
2019-03-08T07:30:58.162Z,74.60
2019-03-08T07:33:36.995Z,74.41
2019-03-08T07:36:25.546Z,74.57
2019-03-08T07:39:18.054Z,74.83
2019-03-08T07:42:06.580Z,74.24
2019-03-08T07:44:51.711Z,72.01
2019-03-08T07:47:29.152Z,70.92
2019-03-08T07:50:10.079Z,71.17
2019-03-08T07:53:00.142Z,70.69
2019-03-08T07:55:48.671Z,70.52
2019-03-08T07:58:43.535Z,71.14
2019-03-08T08:01:29.463Z,70.55
2019-03-08T08:04:09.644Z,70.75
2019-03-08T08:06:46.567Z,68.84
2019-03-08T08:09:34.285Z,68.29
2019-03-08T08:12:24.365Z,68.03
2019-03-08T08:15:17.115Z,68.33
2019-03-08T08:18:19.266Z,69.07
2019-03-08T08:21:12.769Z,69.07
2019-03-08T08:23:58.781Z,69.45
2019-03-08T08:26:39.088Z,70.61
2019-03-08T08:29:22.359Z,70.58
2019-03-08T08:32:02.441Z,68.17
2019-03-08T08:34:50.842Z,64.72
2019-03-08T08:37:41.395Z,63.13
2019-03-08T08:40:29.945Z,65.34
2019-03-08T08:43:20.099Z,65.60
2019-03-08T08:46:13.146Z,64.40
2019-03-08T08:49:01.935Z,62.65
2019-03-08T08:51:53.151Z,61.73
2019-03-08T08:54:49.057Z,61.93
2019-03-08T08:57:45.286Z,63.49
2019-03-08T09:00:56.652Z,63.05
2019-03-08T09:03:39.127Z,62.24
2019-03-08T09:06:20.380Z,62.99
2019-03-08T09:09:06.761Z,62.48
2019-03-08T09:11:47.152Z,63.65
2019-03-08T09:14:20.657Z,61.07
2019-03-08T09:17:13.897Z,61.84
2019-03-08T09:20:16.068Z,63.36
2019-03-08T09:23:02.483Z,64.34
2019-03-08T09:25:51.234Z,62.65
2019-03-08T09:28:45.035Z,61.40
2019-03-08T09:31:35.099Z,62.50
2019-03-08T09:34:28.262Z,61.23
2019-03-08T09:37:18.976Z,62.04
2019-03-08T09:40:03.626Z,61.81
2019-03-08T09:42:57.029Z,63.06
2019-03-08T09:45:46.054Z,62.78
2019-03-08T09:48:39.378Z,61.48
2019-03-08T09:51:47.857Z,60.71
2019-03-08T09:54:40.827Z,60.83
2019-03-08T09:57:30.887Z,60.07
2019-03-08T10:00:21.279Z,60.91
2019-03-08T10:03:14.502Z,61.86
2019-03-08T10:06:04.514Z,61.00
2019-03-08T10:09:06.951Z,61.40
2019-03-08T10:12:00.258Z,62.60
2019-03-08T10:14:38.453Z,63.86
2019-03-08T10:17:37.662Z,63.56
2019-03-08T10:20:28.930Z,65.55
2019-03-08T10:23:20.078Z,65.68
2019-03-08T10:25:57.575Z,63.76
2019-03-08T10:29:01.521Z,63.81
2019-03-08T10:31:51.727Z,64.41
2019-03-08T10:34:44.746Z,62.98
2019-03-08T10:37:49.935Z,62.53
2019-03-08T10:40:45.850Z,62.63
2019-03-08T10:43:25.414Z,61.37
2019-03-08T10:46:15.680Z,63.03
2019-03-08T10:49:06.748Z,63.35
2019-03-08T10:51:50.121Z,60.25
2019-03-08T10:54:34.098Z,60.23
2019-03-08T10:57:25.851Z,59.67
2019-03-08T11:00:29.011Z,60.01
2019-03-08T11:03:24.576Z,59.88
2019-03-08T11:06:01.959Z,62.74
2019-03-08T11:08:51.151Z,61.70
2019-03-08T11:11:29.869Z,62.49
2019-03-08T11:14:18.254Z,62.07
2019-03-08T11:17:14.242Z,60.48
2019-03-08T11:20:13.129Z,60.98
2019-03-08T11:23:09.942Z,59.99
2019-03-08T11:26:02.888Z,58.60
2019-03-08T11:29:07.941Z,58.41
2019-03-08T11:32:12.973Z,58.27
2019-03-08T11:35:06.867Z,57.54
2019-03-08T11:37:55.056Z,57.33
2019-03-08T11:40:37.565Z,55.18
2019-03-08T11:43:28.987Z,53.64
2019-03-08T11:46:22.209Z,54.30
2019-03-08T11:49:07.621Z,56.07
2019-03-08T11:52:08.046Z,57.51
2019-03-08T11:55:03.775Z,58.40
2019-03-08T11:57:52.242Z,60.55
2019-03-08T12:00:36.478Z,61.73
2019-03-08T12:03:30.710Z,62.10
2019-03-08T12:06:20.822Z,60.21
2019-03-08T12:09:20.003Z,61.07
2019-03-08T12:12:15.824Z,62.59
2019-03-08T12:14:54.988Z,63.60
2019-03-08T12:17:51.300Z,64.95
2019-03-08T12:20:56.646Z,66.15
2019-03-08T12:23:43.318Z,66.38
2019-03-08T12:26:33.413Z,65.09
2019-03-08T12:29:20.986Z,66.15
2019-03-08T12:32:11.022Z,63.89
2019-03-08T12:34:47.893Z,65.64
2019-03-08T12:37:41.631Z,63.35
2019-03-08T12:40:28.468Z,62.25
2019-03-08T12:43:21.104Z,63.08
2019-03-08T12:46:06.210Z,61.58
2019-03-08T12:48:54.729Z,59.86
2019-03-08T12:51:33.908Z,58.35
2019-03-08T12:54:22.694Z,59.94
2019-03-08T12:57:26.568Z,56.31
2019-03-08T13:00:04.941Z,56.01
2019-03-08T13:02:53.585Z,54.01
2019-03-08T13:05:50.029Z,53.46
2019-03-08T13:08:40.037Z,52.17
2019-03-08T13:11:11.387Z,50.72
2019-03-08T13:13:42.637Z,49.85
2019-03-08T13:16:14.403Z,49.70
2019-03-08T13:18:45.646Z,47.88
2019-03-08T13:21:19.946Z,47.09
2019-03-08T13:23:51.436Z,48.47
2019-03-08T13:26:22.740Z,47.95
2019-03-08T13:28:54.073Z,47.93
2019-03-08T13:31:33.782Z,48.21
2019-03-08T13:34:18.787Z,48.93
2019-03-08T13:36:50.251Z,47.44
2019-03-08T13:39:21.561Z,49.96
2019-03-08T13:41:52.817Z,48.96
2019-03-08T13:44:24.152Z,49.96
2019-03-08T13:46:55.633Z,49.01
2019-03-08T13:49:27.306Z,48.22
2019-03-08T13:51:58.599Z,47.39
2019-03-08T13:54:29.910Z,46.92
2019-03-08T13:57:01.211Z,48.98
2019-03-08T13:59:32.489Z,48.57
2019-03-08T14:02:03.742Z,48.01
2019-03-08T14:04:34.945Z,47.70
2019-03-08T14:07:06.265Z,49.09
2019-03-08T14:09:37.569Z,48.11
2019-03-08T14:12:10.958Z,46.63
2019-03-08T14:14:42.126Z,47.88
2019-03-08T14:17:13.471Z,49.56
2019-03-08T14:19:46.754Z,49.59
2019-03-08T14:22:20.543Z,48.52
2019-03-08T14:24:52.411Z,48.06
2019-03-08T14:27:23.686Z,47.85
2019-03-08T14:29:59.121Z,48.59
2019-03-08T14:32:29.582Z,50.05
2019-03-08T14:35:01.023Z,50.17
2019-03-08T14:37:32.265Z,50.04
2019-03-08T14:40:06.129Z,51.59
2019-03-08T14:42:55.951Z,51.69
2019-03-08T14:45:35.105Z,50.37
2019-03-08T14:48:09.487Z,50.82
2019-03-08T14:50:39.430Z,51.67
2019-03-08T14:53:10.765Z,50.70
2019-03-08T14:55:41.993Z,51.92
2019-03-08T14:58:13.302Z,51.57
2019-03-08T15:00:45.098Z,51.88
2019-03-08T15:03:16.413Z,51.18
2019-03-08T15:05:51.218Z,50.24
2019-03-08T15:08:23.162Z,51.06
2019-03-08T15:10:54.578Z,51.23
2019-03-08T15:13:25.933Z,51.85
2019-03-08T15:15:58.081Z,51.41
2019-03-08T15:18:31.229Z,51.73
2019-03-08T15:21:02.609Z,51.95
2019-03-08T15:23:33.842Z,52.24
2019-03-08T15:26:05.140Z,53.29
2019-03-08T15:28:36.408Z,52.96
2019-03-08T15:31:07.687Z,53.97
2019-03-08T15:33:39.014Z,53.49
2019-03-08T15:36:10.367Z,53.61
2019-03-08T15:38:43.335Z,53.30
2019-03-08T15:41:14.680Z,53.86
2019-03-08T15:43:46.909Z,54.67
2019-03-08T15:46:22.405Z,53.19
2019-03-08T15:48:53.208Z,53.63
2019-03-08T15:51:25.704Z,53.91
2019-03-08T15:53:58.611Z,53.73
2019-03-08T15:56:29.907Z,53.88
2019-03-08T15:59:03.252Z,53.29
2019-03-08T16:01:34.293Z,53.60
2019-03-08T16:04:08.290Z,53.54
2019-03-08T16:06:43.226Z,53.74
2019-03-08T16:09:12.614Z,53.35
2019-03-08T16:11:45.992Z,54.30
2019-03-08T16:14:16.882Z,53.74
2019-03-08T16:16:48.130Z,52.93
2019-03-08T16:19:20.819Z,53.35
2019-03-08T16:21:52.406Z,53.54
2019-03-08T16:24:30.653Z,52.89
2019-03-08T16:27:02.424Z,53.76
2019-03-08T16:29:32.895Z,53.32
2019-03-08T16:32:16.355Z,54.17
2019-03-08T16:34:48.792Z,54.45
2019-03-08T16:37:41.634Z,55.00
2019-03-08T16:40:46.419Z,54.95
2019-03-08T16:43:41.992Z,55.06
2019-03-08T16:46:26.851Z,54.94
2019-03-08T16:49:05.483Z,54.62
2019-03-08T16:51:57.735Z,55.89
2019-03-08T16:54:59.130Z,55.43
2019-03-08T16:57:44.342Z,56.27
2019-03-08T17:00:40.345Z,56.27
2019-03-08T17:03:33.283Z,57.29
2019-03-08T17:06:26.556Z,56.21
2019-03-08T17:09:19.555Z,56.50
2019-03-08T17:12:07.513Z,56.20
2019-03-08T17:14:54.709Z,57.29
2019-03-08T17:17:56.934Z,58.27
2019-03-08T17:20:45.485Z,57.80
2019-03-08T17:23:25.087Z,57.73
2019-03-08T17:26:09.953Z,58.17
2019-03-08T17:29:00.176Z,58.76
2019-03-08T17:31:50.531Z,60.36
2019-03-08T17:34:46.646Z,60.34
2019-03-08T17:37:42.876Z,60.91
2019-03-08T17:40:29.999Z,59.87
2019-03-08T17:43:23.224Z,59.98
2019-03-08T17:46:02.840Z,59.50
2019-03-08T17:48:49.121Z,60.31
2019-03-08T17:51:42.100Z,60.67
2019-03-08T17:54:23.610Z,60.58
2019-03-08T17:57:19.676Z,60.51
2019-03-08T18:00:11.113Z,60.11
2019-03-08T18:03:10.244Z,60.84
2019-03-08T18:05:58.809Z,59.37
2019-03-08T18:09:06.970Z,59.78
2019-03-08T18:11:46.819Z,59.88
2019-03-08T18:14:45.818Z,59.52
2019-03-08T18:17:42.043Z,60.29
2019-03-08T18:20:44.062Z,59.70
2019-03-08T18:23:42.342Z,59.04
2019-03-08T18:26:44.733Z,58.91
2019-03-08T18:29:46.834Z,59.36
2019-03-08T18:32:28.456Z,59.73
2019-03-08T18:35:27.376Z,60.26
2019-03-08T18:38:17.334Z,60.85
2019-03-08T18:41:13.282Z,61.73
2019-03-08T18:44:03.366Z,61.89
2019-03-08T18:46:56.608Z,61.41
2019-03-08T18:49:38.309Z,61.72
2019-03-08T18:52:26.960Z,61.79
2019-03-08T18:55:19.787Z,61.70
2019-03-08T18:58:05.374Z,62.08
2019-03-08T19:01:01.462Z,62.44
2019-03-08T19:03:59.313Z,62.69
2019-03-08T19:06:57.893Z,63.24
2019-03-08T19:09:42.866Z,63.98
2019-03-08T19:12:27.968Z,64.33
2019-03-08T19:15:18.098Z,64.62
2019-03-08T19:17:59.661Z,65.30
2019-03-08T19:20:46.320Z,65.69
2019-03-08T19:23:35.082Z,66.09
2019-03-08T19:26:31.319Z,66.25
2019-03-08T19:29:24.795Z,66.66
2019-03-08T19:32:06.124Z,66.78
2019-03-08T19:34:56.180Z,67.20
2019-03-08T19:37:46.293Z,67.43
2019-03-08T19:40:27.902Z,68.11
2019-03-08T19:43:18.251Z,68.42
2019-03-08T19:46:02.272Z,68.47
2019-03-08T19:49:07.187Z,68.63
2019-03-08T19:51:55.671Z,68.98
2019-03-08T19:54:54.534Z,68.98
2019-03-08T19:57:43.279Z,69.14
2019-03-08T20:00:46.651Z,68.81
2019-03-08T20:03:39.516Z,69.58
2019-03-08T20:06:41.356Z,69.65
2019-03-08T20:09:34.171Z,69.97
2019-03-08T20:12:23.020Z,70.25
2019-03-08T20:15:11.403Z,69.64
2019-03-08T20:17:50.984Z,69.72
2019-03-08T20:20:41.006Z,69.59
2019-03-08T20:23:36.974Z,69.84
2019-03-08T20:26:25.435Z,69.73
2019-03-08T20:29:22.585Z,69.49
2019-03-08T20:32:11.288Z,69.85
2019-03-08T20:35:04.354Z,69.87
2019-03-08T20:37:49.434Z,69.73
2019-03-08T20:40:48.941Z,70.04
2019-03-08T20:43:30.799Z,70.10
2019-03-08T20:46:20.814Z,70.19
2019-03-08T20:48:52.046Z,70.39
2019-03-08T20:51:23.416Z,70.38
2019-03-08T20:53:54.765Z,70.31
2019-03-08T20:56:26.079Z,70.43
2019-03-08T20:58:57.295Z,70.53
2019-03-08T21:01:28.752Z,70.45
2019-03-08T21:04:00.088Z,71.01
2019-03-08T21:06:31.423Z,70.75
2019-03-08T21:09:02.636Z,70.87
2019-03-08T21:11:33.937Z,70.79
2019-03-08T21:14:05.207Z,70.46
2019-03-08T21:16:37.449Z,70.79
2019-03-08T21:19:08.773Z,70.44
2019-03-08T21:21:40.233Z,69.96
2019-03-08T21:24:11.715Z,69.46
2019-03-08T21:26:42.946Z,69.77
2019-03-08T21:29:14.341Z,69.86
2019-03-08T21:31:45.634Z,69.74
2019-03-08T21:34:19.557Z,69.66
2019-03-08T21:36:50.817Z,69.67
2019-03-08T21:39:22.128Z,69.74
2019-03-08T21:41:53.405Z,69.23
2019-03-08T21:44:24.701Z,69.19
2019-03-08T21:47:03.240Z,68.86
2019-03-08T21:49:34.519Z,68.72
2019-03-08T21:52:05.797Z,68.80
2019-03-08T21:54:37.105Z,68.56
2019-03-08T21:57:08.444Z,68.33
2019-03-08T21:59:39.831Z,68.68
2019-03-08T22:02:11.160Z,68.22
2019-03-08T22:04:49.414Z,68.09
2019-03-08T22:07:20.674Z,67.43
2019-03-08T22:10:13.390Z,67.33
2019-03-08T22:12:44.671Z,66.71
2019-03-08T22:15:16.083Z,66.46
2019-03-08T22:17:47.389Z,65.84
2019-03-08T22:20:18.625Z,65.94
2019-03-08T22:22:49.928Z,65.77
2019-03-08T22:25:23.007Z,65.32
2019-03-08T22:27:54.273Z,64.92
2019-03-08T22:30:25.560Z,64.28
2019-03-08T22:32:56.815Z,63.67
2019-03-08T22:35:28.128Z,63.97
2019-03-08T22:37:59.481Z,64.53
2019-03-08T22:40:30.827Z,64.69
2019-03-08T22:43:02.076Z,65.09
2019-03-08T22:45:33.301Z,67.12
2019-03-08T22:48:04.826Z,66.67
2019-03-08T22:50:36.064Z,67.22
2019-03-08T22:53:09.737Z,68.01
2019-03-08T22:55:41.013Z,68.58
2019-03-08T22:58:12.161Z,69.51
2019-03-08T23:01:22.975Z,69.58
2019-03-08T23:03:54.735Z,70.01
2019-03-08T23:06:26.013Z,69.84
2019-03-08T23:08:57.232Z,70.78
2019-03-08T23:11:28.823Z,70.71
2019-03-08T23:14:00.107Z,71.07
2019-03-08T23:16:31.526Z,71.11
2019-03-08T23:19:02.812Z,71.72
2019-03-08T23:21:34.040Z,71.84
2019-03-08T23:24:24.236Z,72.30
2019-03-08T23:30:05.617Z,72.74
2019-03-08T23:32:40.273Z,73.45
2019-03-08T23:35:11.549Z,74.28
2019-03-08T23:37:42.848Z,73.73
2019-03-08T23:40:14.425Z,73.73
2019-03-08T23:42:45.717Z,73.49
2019-03-08T23:45:16.918Z,73.58
2019-03-08T23:47:48.208Z,73.51
2019-03-08T23:50:19.587Z,73.15
2019-03-08T23:52:50.762Z,71.60
2019-03-08T23:55:21.975Z,72.19
2019-03-08T23:57:53.237Z,72.68
